Time;durP1;ratioP1;P1;durP2;ratioP2;P2;SDS_P1;SDS_P2;PMS_P1;PMS_P2;Temp;Humidity;BMP_temperature;BMP_pressure;BME280_temperature;BME280_humidity;BME280_pressure;Samples;Min_cycle;Max_cycle;Signal;HPM_P1;HPM_P2
2023/06/15 00:01:34;;;;;;;10.15;5.65;;;23.20;69.50;;;;;;4264576;27;20053;-57
2023/06/15 00:03:36;;;;;;;11.63;5.45;;;23.20;69.90;;;;;;4263345;27;20137;-57
2023/06/15 00:05:38;;;;;;;8.73;5.30;;;23.10;69.90;;;;;;4263965;27;20133;-56
2023/06/15 00:07:42;;;;;;;11.77;5.38;;;23.10;70.20;;;;;;4256801;27;20066;-56
2023/06/15 00:09:44;;;;;;;11.02;5.22;;;23.00;70.10;;;;;;4247214;28;20446;-56
2023/06/15 00:11:46;;;;;;;7.03;5.07;;;23.00;70.00;;;;;;4246945;28;20088;-56
2023/06/15 00:13:48;;;;;;;14.45;5.32;;;23.10;70.10;;;;;;4246397;28;20400;-55
2023/06/15 00:15:50;;;;;;;7.05;5.25;;;23.00;70.00;;;;;;4247052;28;20039;-54
2023/06/15 00:17:52;;;;;;;12.38;5.20;;;23.00;70.50;;;;;;4247133;28;20040;-54
2023/06/15 00:19:57;;;;;;;9.45;5.35;;;23.00;70.30;;;;;;4248900;27;20054;-54
2023/06/15 00:21:59;;;;;;;8.73;5.32;;;23.00;70.50;;;;;;4250643;27;20051;-57
2023/06/15 00:24:03;;;;;;;14.18;5.22;;;22.90;70.50;;;;;;4249565;27;20508;-54
2023/06/15 00:26:05;;;;;;;9.73;4.93;;;22.80;70.70;;;;;;4250695;27;20119;-56
2023/06/15 00:28:08;;;;;;;9.32;5.15;;;22.80;70.80;;;;;;4258987;27;20049;-57
2023/06/15 00:30:10;;;;;;;10.98;5.68;;;22.80;70.90;;;;;;4267512;27;20042;-56
2023/06/15 00:32:12;;;;;;;11.13;5.50;;;22.80;71.30;;;;;;4267368;27;20137;-57
2023/06/15 00:34:15;;;;;;;7.20;5.20;;;22.70;71.30;;;;;;4266039;27;20082;-56
2023/06/15 00:36:17;;;;;;;7.28;5.28;;;22.70;71.30;;;;;;4267605;27;20053;-61
2023/06/15 00:38:19;;;;;;;8.82;6.20;;;22.70;71.50;;;;;;4267504;27;20046;-57
2023/06/15 00:40:23;;;;;;;6.22;5.10;;;22.60;71.60;;;;;;4259892;27;20039;-54
2023/06/15 00:42:28;;;;;;;9.32;5.65;;;22.60;72.00;;;;;;4250031;27;20051;-55
2023/06/15 00:44:30;;;;;;;12.18;5.68;;;22.60;72.00;;;;;;4249554;27;20047;-57
2023/06/15 00:46:33;;;;;;;8.57;5.53;;;22.50;72.70;;;;;;4250363;27;20404;-54
2023/06/15 00:48:35;;;;;;;7.53;5.00;;;22.50;72.30;;;;;;4249687;27;20075;-54
2023/06/15 00:50:38;;;;;;;12.52;5.78;;;22.50;72.40;;;;;;4250030;27;20047;-59
2023/06/15 00:52:42;;;;;;;11.35;5.97;;;22.40;72.40;;;;;;4249813;27;20101;-55
2023/06/15 00:54:45;;;;;;;6.28;4.53;;;22.40;72.40;;;;;;4249240;27;20046;-54
2023/06/15 00:56:48;;;;;;;11.73;5.22;;;22.40;73.40;;;;;;4249905;27;20054;-53
2023/06/15 00:58:51;;;;;;;8.13;5.15;;;22.30;72.60;;;;;;4249810;27;20130;-55
2023/06/15 01:00:54;;;;;;;11.70;5.25;;;22.30;72.60;;;;;;4249895;27;20050;-55
2023/06/15 01:02:56;;;;;;;7.18;5.30;;;22.30;72.70;;;;;;4249850;27;20047;-55
2023/06/15 01:04:59;;;;;;;6.20;5.15;;;22.30;72.60;;;;;;4249178;27;20062;-55
2023/06/15 01:07:02;;;;;;;8.25;5.10;;;22.30;72.80;;;;;;4249827;27;20122;-57
2023/06/15 01:09:05;;;;;;;9.57;4.68;;;22.20;73.00;;;;;;4249641;27;20082;-55
2023/06/15 01:11:07;;;;;;;16.25;4.93;;;22.20;72.80;;;;;;4249855;27;20058;-56
2023/06/15 01:13:12;;;;;;;7.32;5.00;;;22.20;72.70;;;;;;4249846;27;20396;-53
2023/06/15 01:15:14;;;;;;;8.95;5.47;;;22.20;72.60;;;;;;4248906;27;20356;-57
2023/06/15 01:17:23;;;;;;;6.72;5.32;;;22.20;72.50;;;;;;4249337;27;20047;-56
2023/06/15 01:19:39;;;;;;;6.68;5.00;;;22.20;72.80;;;;;;4249882;27;20067;-54
2023/06/15 01:21:41;;;;;;;8.45;4.55;;;22.20;73.10;;;;;;4249679;27;20126;-58
2023/06/15 01:23:56;;;;;;;9.52;5.10;;;22.10;73.60;;;;;;4248838;27;20073;-54
2023/06/15 01:26:07;;;;;;;7.80;4.60;;;22.10;73.80;;;;;;4249462;27;20039;-58
2023/06/15 01:28:10;;;;;;;8.40;4.72;;;22.10;73.40;;;;;;4249495;27;20071;-58
2023/06/15 01:30:13;;;;;;;9.52;4.70;;;22.10;72.40;;;;;;4249521;27;20043;-55
2023/06/15 01:32:15;;;;;;;5.30;4.25;;;22.10;72.40;;;;;;4248564;27;20050;-57
2023/06/15 01:34:17;;;;;;;7.47;4.60;;;22.10;72.60;;;;;;4249012;27;20047;-56
2023/06/15 01:36:19;;;;;;;9.50;5.05;;;22.10;73.00;;;;;;4249509;27;20114;-55
2023/06/15 01:38:25;;;;;;;10.77;4.97;;;22.10;73.30;;;;;;4249228;27;20054;-55
2023/06/15 01:40:28;;;;;;;9.93;5.22;;;22.00;73.30;;;;;;4257367;27;20408;-56
2023/06/15 01:42:32;;;;;;;10.57;5.10;;;22.00;73.60;;;;;;4249789;27;20146;-55
2023/06/15 01:44:35;;;;;;;6.35;4.40;;;22.00;73.50;;;;;;4248538;27;20100;-54
2023/06/15 01:46:37;;;;;;;16.50;4.75;;;22.00;73.20;;;;;;4249138;27;20043;-54
2023/06/15 01:48:39;;;;;;;6.72;4.72;;;22.00;75.20;;;;;;4249159;27;20070;-57
2023/06/15 01:50:42;;;;;;;8.55;4.60;;;21.90;74.90;;;;;;4249212;27;20106;-57
2023/06/15 01:52:45;;;;;;;6.13;4.10;;;21.80;75.70;;;;;;4249139;27;20126;-55
2023/06/15 01:54:47;;;;;;;9.43;5.07;;;21.80;75.70;;;;;;4248093;27;20085;-54
2023/06/15 01:56:49;;;;;;;6.05;4.90;;;21.70;76.40;;;;;;4230915;28;20132;-55
2023/06/15 01:58:53;;;;;;;8.27;4.43;;;21.60;76.40;;;;;;4249178;27;20067;-55
2023/06/15 02:00:55;;;;;;;11.13;4.90;;;21.60;76.30;;;;;;4248869;27;20047;-55
2023/06/15 02:02:57;;;;;;;10.43;4.57;;;21.70;75.50;;;;;;4249063;27;20049;-58
2023/06/15 02:05:00;;;;;;;7.20;4.50;;;21.60;76.40;;;;;;4247944;27;20044;-58
2023/06/15 02:07:02;;;;;;;8.07;4.35;;;21.60;75.00;;;;;;4248861;27;20077;-57
2023/06/15 02:09:05;;;;;;;6.70;4.40;;;21.60;75.50;;;;;;4248853;27;20054;-55
2023/06/15 02:11:07;;;;;;;9.27;4.72;;;21.60;76.60;;;;;;4249005;27;20054;-58
2023/06/15 02:13:11;;;;;;;5.70;4.57;;;21.50;76.80;;;;;;4248777;27;20092;-58
2023/06/15 02:15:15;;;;;;;7.97;4.73;;;21.50;76.80;;;;;;4247476;27;20053;-55
2023/06/15 02:17:18;;;;;;;6.70;4.50;;;21.40;77.80;;;;;;4248967;27;20051;-56
2023/06/15 02:19:23;;;;;;;9.20;4.90;;;21.40;76.90;;;;;;4248748;27;20048;-55
2023/06/15 02:21:26;;;;;;;8.57;5.03;;;21.40;77.70;;;;;;4248532;27;20043;-58
2023/06/15 02:23:28;;;;;;;6.50;4.53;;;21.40;77.60;;;;;;4248627;27;20043;-55
2023/06/15 02:25:30;;;;;;;7.43;5.03;;;21.30;77.00;;;;;;4248168;27;20039;-59
2023/06/15 02:27:32;;;;;;;8.60;4.53;;;21.40;77.30;;;;;;4248749;27;20077;-58
2023/06/15 02:29:34;;;;;;;7.95;4.70;;;21.30;78.00;;;;;;4248305;27;20500;-58
2023/06/15 02:31:38;;;;;;;9.60;4.88;;;21.20;78.20;;;;;;4248480;27;20049;-58
2023/06/15 02:33:40;;;;;;;13.73;5.15;;;21.20;78.40;;;;;;4247669;27;20054;-57
2023/06/15 02:35:42;;;;;;;6.18;4.60;;;21.20;78.90;;;;;;4230117;28;20040;-58
2023/06/15 02:37:44;;;;;;;12.27;5.28;;;21.10;78.40;;;;;;4248580;27;20043;-58
2023/06/15 02:39:46;;;;;;;7.18;4.82;;;21.10;79.40;;;;;;4248542;27;20069;-56
2023/06/15 02:41:48;;;;;;;7.57;4.75;;;21.10;78.80;;;;;;4247940;27;20079;-56
2023/06/15 02:43:52;;;;;;;9.35;5.03;;;21.10;78.50;;;;;;4246440;27;20043;-56
2023/06/15 02:45:54;;;;;;;6.72;5.30;;;21.10;78.60;;;;;;4248091;27;20047;-58
2023/06/15 02:47:58;;;;;;;7.75;5.30;;;21.10;79.40;;;;;;4248331;27;20043;-59
2023/06/15 02:50:00;;;;;;;11.33;5.60;;;21.10;78.70;;;;;;4248449;27;20047;-58
2023/06/15 02:52:03;;;;;;;9.60;5.07;;;21.10;79.60;;;;;;4247969;27;20543;-58
2023/06/15 02:54:06;;;;;;;7.57;5.05;;;21.10;78.30;;;;;;4247261;27;20061;-57
2023/06/15 02:56:09;;;;;;;6.30;4.70;;;21.10;77.90;;;;;;4248008;27;20039;-58
2023/06/15 02:58:13;;;;;;;8.45;5.28;;;21.20;77.90;;;;;;4247762;27;20050;-56
2023/06/15 03:00:17;;;;;;;8.50;4.78;;;21.20;77.90;;;;;;4247931;27;20466;-56
2023/06/15 03:02:23;;;;;;;11.10;4.90;;;21.10;78.80;;;;;;4248051;27;20383;-57
2023/06/15 03:04:27;;;;;;;8.90;5.03;;;21.10;78.00;;;;;;4247119;27;20070;-56
2023/06/15 03:06:33;;;;;;;8.63;4.95;;;21.20;78.10;;;;;;4248189;27;20057;-53
2023/06/15 03:08:35;;;;;;;6.22;4.38;;;21.10;77.80;;;;;;4263332;27;20103;-57
2023/06/15 03:10:37;;;;;;;8.93;5.22;;;21.10;77.90;;;;;;4265053;27;20049;-57
2023/06/15 03:12:39;;;;;;;8.75;4.75;;;21.10;77.40;;;;;;4264842;27;20131;-57
2023/06/15 03:14:49;;;;;;;7.30;5.07;;;21.20;77.40;;;;;;4264139;27;20114;-56
2023/06/15 03:16:54;;;;;;;6.32;4.63;;;21.10;77.90;;;;;;4265340;27;20046;-56
2023/06/15 03:18:56;;;;;;;11.48;5.35;;;21.20;77.70;;;;;;4264947;27;20051;-54
2023/06/15 03:21:00;;;;;;;7.50;5.47;;;21.10;77.60;;;;;;4265074;27;20503;-54
2023/06/15 03:23:02;;;;;;;8.38;4.82;;;21.10;77.90;;;;;;4265162;27;20050;-54
2023/06/15 03:25:05;;;;;;;21.20;5.38;;;21.10;78.70;;;;;;4263946;27;20046;-54
2023/06/15 03:27:09;;;;;;;8.57;5.13;;;21.00;79.30;;;;;;4256040;27;20039;-54
2023/06/15 03:29:13;;;;;;;13.23;5.22;;;21.00;79.50;;;;;;4247695;27;20084;-53
2023/06/15 03:31:18;;;;;;;10.32;5.03;;;21.00;79.70;;;;;;4247636;27;20043;-57
2023/06/15 03:33:23;;;;;;;10.13;5.15;;;21.00;79.50;;;;;;4247893;27;20151;-60
2023/06/15 03:35:26;;;;;;;11.13;4.82;;;20.90;79.40;;;;;;4246758;27;20046;-57
2023/06/15 03:37:30;;;;;;;9.18;4.95;;;20.90;79.90;;;;;;4229816;28;20068;-58
2023/06/15 03:39:33;;;;;;;11.80;5.50;;;20.90;79.10;;;;;;4247956;27;20488;-57
2023/06/15 03:41:37;;;;;;;5.93;4.15;;;21.00;78.00;;;;;;4255391;27;20507;-57
2023/06/15 03:43:39;;;;;;;6.43;4.60;;;21.00;77.70;;;;;;4265052;27;20408;-58
2023/06/15 03:45:41;;;;;;;11.90;4.93;;;21.00;78.10;;;;;;4263922;27;20051;-57
2023/06/15 03:47:44;;;;;;;7.53;4.43;;;21.00;78.20;;;;;;4264711;27;20114;-57
2023/06/15 03:49:46;;;;;;;6.88;4.85;;;21.00;78.00;;;;;;4246327;27;20054;-55
2023/06/15 03:51:48;;;;;;;6.95;4.80;;;21.00;78.60;;;;;;4264481;27;20043;-58
2023/06/15 03:53:52;;;;;;;11.25;5.28;;;21.00;78.10;;;;;;4264084;27;20043;-57
2023/06/15 03:55:54;;;;;;;6.63;4.47;;;21.00;77.80;;;;;;4263801;27;20043;-58
2023/06/15 03:57:56;;;;;;;9.95;4.75;;;21.00;78.20;;;;;;4264515;27;20457;-57
2023/06/15 03:59:59;;;;;;;8.32;4.75;;;20.90;78.40;;;;;;4264693;27;20047;-54
2023/06/15 04:02:03;;;;;;;8.50;4.70;;;20.80;78.70;;;;;;4265076;27;20050;-55
2023/06/15 04:04:05;;;;;;;13.85;4.70;;;20.90;78.80;;;;;;4245642;27;20058;-55
2023/06/15 04:06:07;;;;;;;9.20;4.85;;;20.90;78.10;;;;;;4264535;27;20091;-54
2023/06/15 04:08:09;;;;;;;8.27;4.63;;;20.90;77.90;;;;;;4252847;27;20043;-55
2023/06/15 04:10:13;;;;;;;7.60;4.90;;;20.90;77.80;;;;;;4248084;28;20039;-67
2023/06/15 04:12:15;;;;;;;8.93;4.25;;;20.90;77.80;;;;;;4229675;28;20051;-56
2023/06/15 04:14:18;;;;;;;7.28;4.47;;;20.90;77.50;;;;;;4247185;28;20134;-54
2023/06/15 04:16:20;;;;;;;6.72;4.53;;;21.00;77.20;;;;;;4247965;28;20044;-59
2023/06/15 04:18:24;;;;;;;14.23;5.10;;;21.00;77.20;;;;;;4248224;28;20043;-59
2023/06/15 04:20:27;;;;;;;10.23;5.28;;;20.90;77.40;;;;;;4248484;28;20050;-60
2023/06/15 04:22:29;;;;;;;7.65;5.00;;;20.90;77.50;;;;;;4248842;28;20134;-60
2023/06/15 04:24:31;;;;;;;7.57;4.50;;;20.90;77.70;;;;;;4247010;28;20043;-58
2023/06/15 04:26:35;;;;;;;6.85;4.43;;;20.90;77.90;;;;;;4247631;27;20042;-59
2023/06/15 04:28:37;;;;;;;9.77;5.07;;;21.00;78.00;;;;;;4248130;28;20047;-56
2023/06/15 04:30:44;;;;;;;12.48;5.20;;;20.90;78.20;;;;;;4248055;28;20054;-56
2023/06/15 04:32:46;;;;;;;14.02;5.03;;;21.00;78.10;;;;;;4248251;28;20114;-58
2023/06/15 04:34:49;;;;;;;10.73;4.80;;;20.90;77.50;;;;;;4247045;28;20047;-58
2023/06/15 04:36:51;;;;;;;20.67;4.97;;;20.90;77.40;;;;;;4248506;28;20040;-54
2023/06/15 04:38:53;;;;;;;7.25;4.20;;;21.00;77.60;;;;;;4248037;28;20043;-58
2023/06/15 04:40:56;;;;;;;7.88;4.28;;;21.00;77.60;;;;;;4247414;28;20088;-54
2023/06/15 04:43:03;;;;;;;6.90;3.95;;;20.90;77.60;;;;;;4248419;28;20074;-54
2023/06/15 04:45:07;;;;;;;7.60;4.45;;;20.90;77.70;;;;;;4246568;28;20442;-55
2023/06/15 04:47:09;;;;;;;8.55;5.03;;;20.90;77.50;;;;;;4229938;28;20409;-56
2023/06/15 04:49:12;;;;;;;14.52;4.53;;;20.90;77.30;;;;;;4248186;28;20039;-60
2023/06/15 04:51:15;;;;;;;7.47;4.22;;;21.00;77.10;;;;;;4229720;28;20051;-59
2023/06/15 04:53:18;;;;;;;13.20;4.40;;;20.90;76.80;;;;;;4247962;28;20039;-57
2023/06/15 04:55:20;;;;;;;9.23;4.32;;;20.90;76.80;;;;;;4246479;28;20093;-57
2023/06/15 04:57:22;;;;;;;9.05;4.07;;;21.00;76.70;;;;;;4247399;28;20485;-57
2023/06/15 04:59:27;;;;;;;9.32;4.47;;;21.00;76.60;;;;;;4246818;28;20039;-56
2023/06/15 05:01:29;;;;;;;7.38;4.38;;;21.00;76.80;;;;;;4247207;28;20047;-61
2023/06/15 05:03:32;;;;;;;9.57;4.60;;;21.10;77.00;;;;;;4247452;28;20138;-56
2023/06/15 05:05:35;;;;;;;12.50;5.03;;;21.10;76.70;;;;;;4246122;27;20044;-57
2023/06/15 05:07:37;;;;;;;10.55;4.15;;;21.10;76.60;;;;;;4256981;27;20436;-59
2023/06/15 05:09:39;;;;;;;7.88;4.32;;;21.20;76.60;;;;;;4266990;27;20487;-57
2023/06/15 05:11:41;;;;;;;8.85;4.10;;;21.20;76.80;;;;;;4267192;27;20043;-56
2023/06/15 05:13:43;;;;;;;9.73;4.50;;;21.20;76.60;;;;;;4267124;27;20103;-62
2023/06/15 05:15:47;;;;;;;8.82;4.90;;;21.10;76.40;;;;;;4266144;27;20043;-56
2023/06/15 05:17:49;;;;;;;7.85;4.95;;;21.20;76.40;;;;;;4266864;27;20042;-58
2023/06/15 05:19:51;;;;;;;7.88;4.78;;;21.20;76.40;;;;;;4267290;27;20047;-56
2023/06/15 05:21:58;;;;;;;9.85;4.38;;;21.30;76.20;;;;;;4267480;27;20050;-57
2023/06/15 05:24:00;;;;;;;10.50;4.32;;;21.30;76.50;;;;;;4266668;27;20062;-56
2023/06/15 05:26:03;;;;;;;17.60;5.20;;;21.30;76.70;;;;;;4265887;27;20046;-57
2023/06/15 05:28:10;;;;;;;15.20;4.78;;;21.30;76.40;;;;;;4249713;27;20124;-57
2023/06/15 05:30:12;;;;;;;15.63;5.07;;;21.30;76.30;;;;;;4249863;27;20049;-57
2023/06/15 05:32:16;;;;;;;12.48;4.72;;;21.30;76.40;;;;;;4249462;27;20118;-59
2023/06/15 05:34:18;;;;;;;23.93;5.83;;;21.40;76.30;;;;;;4248933;27;20134;-57
2023/06/15 05:36:20;;;;;;;15.77;4.85;;;21.40;76.00;;;;;;4249376;27;20066;-56
2023/06/15 05:38:35;;;;;;;15.75;4.65;;;21.30;76.10;;;;;;4249032;27;20050;-57
2023/06/15 05:40:37;;;;;;;19.02;4.90;;;21.40;76.60;;;;;;4258663;27;20046;-57
2023/06/15 05:42:39;;;;;;;12.30;5.00;;;21.30;76.60;;;;;;4249148;27;20055;-54
2023/06/15 05:44:42;;;;;;;12.45;5.50;;;21.40;77.40;;;;;;4248468;27;20047;-55
2023/06/15 05:46:44;;;;;;;28.17;5.45;;;21.40;76.40;;;;;;4249134;27;20466;-55
2023/06/15 05:48:47;;;;;;;18.05;5.13;;;21.40;76.20;;;;;;4249438;27;20050;-55
2023/06/15 05:50:49;;;;;;;15.70;4.90;;;21.40;76.10;;;;;;4249343;27;20062;-55
2023/06/15 05:52:52;;;;;;;14.55;4.70;;;21.40;75.80;;;;;;4249133;27;20491;-54
2023/06/15 05:54:54;;;;;;;9.10;4.75;;;21.50;75.70;;;;;;4248253;27;20390;-54
2023/06/15 05:56:56;;;;;;;14.38;4.82;;;21.40;75.50;;;;;;4249337;27;20039;-55
2023/06/15 05:58:58;;;;;;;8.23;4.72;;;21.50;75.50;;;;;;4249227;27;20521;-55
2023/06/15 06:01:00;;;;;;;16.30;5.68;;;21.40;75.50;;;;;;4249379;27;20053;-61
2023/06/15 06:03:03;;;;;;;9.98;4.78;;;21.50;75.60;;;;;;4249965;27;20114;-54
2023/06/15 06:05:07;;;;;;;18.33;5.72;;;21.40;75.50;;;;;;4248391;27;20054;-54
2023/06/15 06:07:10;;;;;;;10.13;4.78;;;21.50;76.00;;;;;;4248707;27;20506;-55
2023/06/15 06:09:12;;;;;;;15.45;5.05;;;21.50;76.10;;;;;;4249140;27;20142;-54
2023/06/15 06:11:14;;;;;;;27.60;5.32;;;21.50;76.10;;;;;;4248895;27;20089;-54
2023/06/15 06:13:16;;;;;;;11.05;4.72;;;21.60;75.70;;;;;;4248886;27;20051;-54
2023/06/15 06:15:19;;;;;;;12.35;4.82;;;21.60;75.80;;;;;;4247598;27;20062;-54
2023/06/15 06:17:22;;;;;;;22.02;5.25;;;21.70;75.60;;;;;;4248936;27;20112;-54
2023/06/15 06:19:44;;;;;;;14.10;4.50;;;21.80;75.50;;;;;;4248787;27;20481;-53
2023/06/15 06:21:47;;;;;;;12.07;5.13;;;21.90;75.20;;;;;;4248378;27;20074;-55
2023/06/15 06:23:49;;;;;;;11.30;4.70;;;21.90;74.90;;;;;;4248685;27;20035;-54
2023/06/15 06:25:52;;;;;;;13.07;4.30;;;21.90;74.50;;;;;;4247842;27;20059;-55
2023/06/15 06:27:54;;;;;;;11.50;4.75;;;21.90;74.70;;;;;;4248540;27;20126;-54
2023/06/15 06:29:58;;;;;;;21.73;4.97;;;22.00;74.60;;;;;;4248688;27;20096;-57
2023/06/15 06:32:00;;;;;;;18.13;5.17;;;22.10;74.20;;;;;;4248675;27;20095;-57
2023/06/15 06:34:02;;;;;;;15.90;4.30;;;22.20;74.00;;;;;;4248240;27;20123;-57
2023/06/15 06:36:08;;;;;;;16.65;4.38;;;22.20;73.20;;;;;;4247242;27;20092;-57
2023/06/15 06:38:11;;;;;;;12.50;4.18;;;22.20;73.20;;;;;;4248679;27;20155;-57
2023/06/15 06:40:13;;;;;;;9.50;4.15;;;22.20;73.50;;;;;;4230206;28;20361;-57
2023/06/15 06:42:15;;;;;;;18.88;5.43;;;22.20;73.70;;;;;;4229518;28;20489;-55
2023/06/15 06:44:19;;;;;;;12.63;4.95;;;22.30;73.70;;;;;;4248388;27;20070;-54
2023/06/15 06:46:22;;;;;;;22.40;5.10;;;22.20;73.80;;;;;;4247557;27;20083;-57
2023/06/15 06:48:24;;;;;;;11.23;4.53;;;22.20;74.00;;;;;;4248205;27;20047;-54
2023/06/15 06:50:26;;;;;;;15.00;4.82;;;22.30;74.20;;;;;;4247928;27;20062;-52
2023/06/15 06:52:28;;;;;;;18.73;5.30;;;22.40;74.10;;;;;;4248313;27;20421;-54
2023/06/15 06:54:32;;;;;;;14.88;4.60;;;22.50;73.70;;;;;;4247427;27;20031;-55
2023/06/15 06:56:34;;;;;;;13.50;4.63;;;22.60;73.20;;;;;;4248255;27;20043;-54
2023/06/15 06:58:36;;;;;;;18.00;5.32;;;22.70;73.50;;;;;;4248281;27;20054;-54
2023/06/15 07:00:38;;;;;;;14.00;4.40;;;22.80;73.70;;;;;;4248146;27;20096;-53
2023/06/15 07:02:40;;;;;;;13.45;4.43;;;22.70;73.70;;;;;;4248016;27;20043;-54
2023/06/15 07:04:43;;;;;;;15.07;5.15;;;22.90;73.80;;;;;;4247118;27;20412;-54
2023/06/15 07:06:45;;;;;;;14.40;5.10;;;23.00;73.80;;;;;;4247668;27;20047;-54
2023/06/15 07:08:47;;;;;;;14.25;4.30;;;23.10;73.60;;;;;;4247928;27;20412;-54
2023/06/15 07:10:50;;;;;;;13.63;4.57;;;23.30;72.60;;;;;;4248101;27;20480;-54
2023/06/15 07:12:55;;;;;;;13.15;4.72;;;23.40;72.20;;;;;;4247705;27;20524;-57
2023/06/15 07:14:57;;;;;;;10.50;4.38;;;23.60;72.30;;;;;;4246859;27;20043;-57
2023/06/15 07:16:59;;;;;;;9.50;4.70;;;23.70;72.30;;;;;;4247745;27;20399;-56
2023/06/15 07:19:02;;;;;;;6.88;4.05;;;23.90;72.10;;;;;;4247311;27;20076;-56
2023/06/15 07:21:04;;;;;;;11.27;4.30;;;24.10;71.70;;;;;;4247989;27;20051;-56
2023/06/15 07:23:11;;;;;;;10.77;4.50;;;24.10;71.90;;;;;;4247858;27;20396;-57
2023/06/15 07:25:13;;;;;;;25.52;5.53;;;24.10;72.20;;;;;;4246864;27;20085;-57
2023/06/15 07:27:17;;;;;;;19.52;4.85;;;24.30;71.80;;;;;;4247683;27;20503;-56
2023/06/15 07:29:19;;;;;;;14.43;4.30;;;24.10;71.30;;;;;;4247331;27;20047;-62
2023/06/15 07:31:21;;;;;;;11.30;4.15;;;24.30;71.30;;;;;;4247857;27;20474;-58
2023/06/15 07:33:23;;;;;;;11.98;4.60;;;24.30;70.70;;;;;;4228999;28;20481;-59
2023/06/15 07:35:26;;;;;;;20.55;4.18;;;24.40;70.50;;;;;;4246850;27;20051;-53
2023/06/15 07:37:33;;;;;;;21.05;4.57;;;24.60;71.00;;;;;;4247752;27;20056;-53
2023/06/15 07:39:36;;;;;;;42.38;7.28;;;24.50;70.60;;;;;;4247761;27;20157;-54
2023/06/15 07:41:39;;;;;;;22.30;5.43;;;24.60;70.80;;;;;;4247341;27;20059;-54
2023/06/15 07:43:42;;;;;;;14.90;4.53;;;24.60;70.50;;;;;;4247521;27;20420;-55
2023/06/15 07:45:45;;;;;;;16.42;4.65;;;24.60;70.80;;;;;;4228403;28;20075;-54
2023/06/15 07:47:48;;;;;;;13.57;4.90;;;24.40;71.00;;;;;;4247584;27;20158;-54
2023/06/15 07:49:50;;;;;;;11.65;4.80;;;24.50;70.70;;;;;;4247340;27;20433;-54
2023/06/15 07:51:52;;;;;;;19.98;5.28;;;24.60;70.50;;;;;;4247367;27;20134;-57
2023/06/15 07:54:11;;;;;;;13.15;4.65;;;24.60;70.60;;;;;;4247301;28;20122;-57
2023/06/15 07:56:13;;;;;;;12.15;5.07;;;24.50;70.80;;;;;;4246360;28;20053;-57
2023/06/15 07:58:15;;;;;;;11.95;4.05;;;24.70;69.70;;;;;;4247707;28;20082;-57
2023/06/15 08:00:20;;;;;;;12.07;4.10;;;24.80;70.00;;;;;;4247452;28;20043;-56
2023/06/15 08:02:23;;;;;;;9.07;3.92;;;24.90;69.30;;;;;;4247555;28;20121;-57
2023/06/15 08:04:25;;;;;;;22.98;3.97;;;24.90;68.60;;;;;;4247276;28;20061;-57
2023/06/15 08:06:27;;;;;;;12.95;3.70;;;25.10;68.70;;;;;;4246408;28;20043;-57
2023/06/15 08:08:29;;;;;;;12.65;3.63;;;25.20;68.70;;;;;;4262131;27;20049;-56
2023/06/15 08:10:32;;;;;;;10.77;3.00;;;25.30;67.90;;;;;;4264911;27;20421;-57
2023/06/15 08:12:34;;;;;;;12.93;4.00;;;25.40;67.90;;;;;;4264474;27;20095;-57
2023/06/15 08:14:36;;;;;;;12.57;3.38;;;25.40;67.40;;;;;;4264112;27;20047;-57
2023/06/15 08:16:40;;;;;;;8.73;3.60;;;25.50;67.90;;;;;;4263441;27;20050;-57
2023/06/15 08:18:42;;;;;;;12.73;3.60;;;25.30;67.10;;;;;;4264153;27;20077;-57
2023/06/15 08:20:44;;;;;;;8.70;3.80;;;25.20;67.70;;;;;;4246127;27;20471;-57
2023/06/15 08:22:46;;;;;;;17.38;3.97;;;25.30;68.80;;;;;;4264454;27;20070;-57
2023/06/15 08:24:49;;;;;;;10.63;3.78;;;25.40;68.20;;;;;;4264068;27;20054;-57
2023/06/15 08:26:52;;;;;;;9.93;3.97;;;25.60;68.20;;;;;;4257901;27;20075;-56
2023/06/15 08:28:54;;;;;;;11.63;4.30;;;25.60;68.00;;;;;;4247209;28;20446;-57
2023/06/15 08:31:07;;;;;;;11.45;3.88;;;25.70;68.00;;;;;;4247189;28;20050;-57
2023/06/15 08:33:11;;;;;;;12.65;3.83;;;25.90;67.90;;;;;;4246853;28;20053;-57
2023/06/15 08:35:14;;;;;;;12.30;3.22;;;26.00;67.60;;;;;;4246080;28;20814;-57
2023/06/15 08:37:16;;;;;;;21.58;4.28;;;26.10;68.00;;;;;;4247404;28;20100;-55
2023/06/15 08:39:18;;;;;;;6.03;2.97;;;26.10;66.60;;;;;;4247288;28;20156;-54
2023/06/15 08:41:25;;;;;;;14.52;3.40;;;26.10;66.40;;;;;;4254645;27;20499;-55
2023/06/15 08:43:29;;;;;;;8.48;2.88;;;26.30;65.80;;;;;;4267768;27;20039;-57
2023/06/15 08:45:38;;;;;;;17.85;4.38;;;26.40;65.80;;;;;;4266464;27;20039;-60
2023/06/15 08:47:42;;;;;;;23.85;3.60;;;26.40;65.20;;;;;;4266872;27;20074;-58
2023/06/15 08:49:48;;;;;;;22.02;4.25;;;26.30;65.50;;;;;;4267220;27;20043;-57
2023/06/15 08:51:51;;;;;;;19.23;3.85;;;26.20;65.50;;;;;;4267376;27;20089;-57
2023/06/15 08:53:56;;;;;;;11.90;3.55;;;26.00;65.50;;;;;;4248883;27;20039;-56
2023/06/15 08:55:58;;;;;;;;;;;25.90;66.20;;;;;;4266920;27;20046;-57
2023/06/15 08:58:00;;;;;;;14.50;3.65;;;26.00;65.50;;;;;;4267126;27;20023;-56
2023/06/15 09:00:08;;;;;;;10.82;3.50;;;25.90;65.60;;;;;;4267169;27;20052;-54
2023/06/15 09:02:18;;;;;;;7.32;3.40;;;25.80;66.40;;;;;;4266900;27;20047;-57
2023/06/15 09:04:20;;;;;;;13.60;4.07;;;26.00;66.40;;;;;;4267126;27;20130;-54
2023/06/15 09:06:23;;;;;;;8.23;3.38;;;26.00;66.20;;;;;;4266137;27;20066;-55
2023/06/15 09:08:26;;;;;;;7.22;3.22;;;26.10;65.60;;;;;;4252937;27;20055;-54
2023/06/15 09:10:28;;;;;;;9.30;2.80;;;26.10;65.80;;;;;;4249856;27;20035;-56
2023/06/15 09:12:30;;;;;;;8.65;3.65;;;26.20;66.10;;;;;;4231824;28;20481;-56
2023/06/15 09:14:39;;;;;;;10.52;3.72;;;26.30;66.30;;;;;;4249949;27;20111;-63
2023/06/15 09:16:41;;;;;;;11.90;3.47;;;26.40;66.00;;;;;;4248817;27;20067;-56
2023/06/15 09:18:47;;;;;;;8.90;3.60;;;26.50;66.30;;;;;;4231770;28;20044;-58
2023/06/15 09:20:49;;;;;;;8.10;3.33;;;26.60;66.10;;;;;;4250856;27;20043;-56
2023/06/15 09:22:57;;;;;;;15.40;3.33;;;26.70;65.50;;;;;;4254148;27;20415;-57
2023/06/15 09:24:59;;;;;;;6.50;2.90;;;26.80;65.30;;;;;;4249954;27;20046;-55
2023/06/15 09:27:15;;;;;;;14.07;4.03;;;26.90;64.40;;;;;;4256562;27;20403;-55
2023/06/15 09:29:17;;;;;;;19.00;3.47;;;27.00;63.60;;;;;;4257436;27;20472;-55
2023/06/15 09:31:30;;;;;;;10.13;2.65;;;26.90;63.50;;;;;;4257069;27;20434;-56
2023/06/15 09:33:33;;;;;;;12.77;3.03;;;26.80;62.70;;;;;;4256990;27;20047;-56
2023/06/15 09:35:35;;;;;;;15.10;3.08;;;26.90;63.60;;;;;;4256049;27;20109;-56
2023/06/15 09:37:38;;;;;;;6.65;3.08;;;26.90;63.70;;;;;;4254760;27;20050;-56
2023/06/15 09:39:45;;;;;;;10.55;3.50;;;26.90;64.00;;;;;;4233011;27;20047;-54
2023/06/15 09:41:51;;;;;;;12.10;3.10;;;26.90;63.00;;;;;;4265291;27;20054;-54
2023/06/15 09:43:56;;;;;;;14.10;2.95;;;26.90;63.20;;;;;;4265542;27;20190;-56
2023/06/15 09:45:58;;;;;;;8.55;3.15;;;26.90;62.90;;;;;;4246336;27;20055;-57
2023/06/15 09:48:00;;;;;;;6.32;2.67;;;27.00;62.40;;;;;;4265881;27;20485;-57
2023/06/15 09:50:08;;;;;;;12.90;3.33;;;26.90;61.10;;;;;;4265912;27;20074;-54
2023/06/15 09:52:12;;;;;;;16.25;3.20;;;27.00;63.40;;;;;;4265263;27;20051;-55
2023/06/15 09:54:15;;;;;;;12.35;3.17;;;27.10;61.20;;;;;;4264682;27;20119;-57
2023/06/15 09:56:21;;;;;;;20.90;3.70;;;27.20;61.70;;;;;;4264533;27;20043;-57
2023/06/15 09:58:32;;;;;;;11.75;2.83;;;27.30;61.70;;;;;;4265017;27;20138;-56
2023/06/15 10:00:34;;;;;;;9.32;2.97;;;27.40;61.60;;;;;;4265404;27;20080;-57
2023/06/15 10:02:38;;;;;;;10.55;2.35;;;27.40;62.10;;;;;;4265681;27;20042;-56
2023/06/15 10:04:42;;;;;;;17.45;3.60;;;27.60;61.10;;;;;;4265577;27;20047;-56
2023/06/15 10:06:49;;;;;;;11.68;3.78;;;27.80;60.40;;;;;;4264652;27;20051;-55
2023/06/15 10:08:57;;;;;;;12.95;3.20;;;27.80;61.50;;;;;;4248342;27;20078;-56
2023/06/15 10:10:59;;;;;;;18.33;4.03;;;27.70;62.50;;;;;;4251216;27;20252;-56
2023/06/15 10:13:05;;;;;;;11.52;3.17;;;27.70;62.80;;;;;;4247964;27;20043;-59
2023/06/15 10:15:14;;;;;;;9.48;3.50;;;27.80;62.60;;;;;;4247767;27;20053;-59
2023/06/15 10:17:22;;;;;;;9.40;3.65;;;27.90;62.20;;;;;;4247849;27;20122;-59
2023/06/15 10:19:27;;;;;;;8.18;3.85;;;28.00;60.40;;;;;;4247843;27;20066;-59
2023/06/15 10:21:31;;;;;;;11.23;3.08;;;28.00;60.90;;;;;;4247860;27;20047;-59
2023/06/15 10:23:34;;;;;;;;;;;28.00;60.50;;;;;;4248395;27;20071;-56
2023/06/15 10:25:44;;;;;;;13.30;3.85;;;28.10;59.30;;;;;;4246970;27;19927;-59
2023/06/15 10:27:46;;;;;;;12.10;3.58;;;28.10;60.30;;;;;;4254694;27;20140;-59
2023/06/15 10:30:07;;;;;;;8.05;3.70;;;28.30;59.70;;;;;;4249602;27;20095;-59
2023/06/15 10:32:15;;;;;;;12.18;3.60;;;28.20;59.90;;;;;;4249535;27;20077;-59
2023/06/15 10:34:25;;;;;;;8.82;3.50;;;28.30;60.00;;;;;;4247733;27;20126;-58
2023/06/15 10:36:30;;;;;;;13.93;3.42;;;27.90;60.70;;;;;;4246577;27;20057;-56
2023/06/15 10:38:38;;;;;;;19.75;3.92;;;27.90;61.30;;;;;;4247584;27;20087;-58
2023/06/15 10:40:45;;;;;;;16.85;3.65;;;28.10;61.80;;;;;;4256794;27;20095;-58